sensor_id;sensor_type;location;lat;lon;timestamp;pressure;altitude;pressure_sealevel;temperature;humidity
52855;BME280;38719;51.418;7.286;2022-12-13T00:01:42;99399.69;;;-0.02;62.92
52855;BME280;38719;51.418;7.286;2022-12-13T00:04:10;99399.69;;;-0.05;62.18
52855;BME280;38719;51.418;7.286;2022-12-13T00:06:39;99404.09;;;-0.07;63.09
52855;BME280;38719;51.418;7.286;2022-12-13T00:09:07;99399.72;;;-0.04;62.60
52855;BME280;38719;51.418;7.286;2022-12-13T00:11:37;99409.38;;;-0.10;63.04
52855;BME280;38719;51.418;7.286;2022-12-13T00:14:05;99389.38;;;-0.16;62.46
52855;BME280;38719;51.418;7.286;2022-12-13T00:16:33;99385.97;;;-0.27;62.88
52855;BME280;38719;51.418;7.286;2022-12-13T00:19:01;99394.56;;;-0.13;62.86
52855;BME280;38719;51.418;7.286;2022-12-13T00:21:31;99384.09;;;-0.13;62.51
52855;BME280;38719;51.418;7.286;2022-12-13T00:24:00;99394.59;;;-0.14;62.30
52855;BME280;38719;51.418;7.286;2022-12-13T00:26:30;99391.19;;;-0.24;62.48
52855;BME280;38719;51.418;7.286;2022-12-13T00:29:01;99375.50;;;-0.26;62.60
52855;BME280;38719;51.418;7.286;2022-12-13T00:31:29;99386.84;;;-0.25;62.19
52855;BME280;38719;51.418;7.286;2022-12-13T00:34:17;99391.28;;;-0.35;62.47
52855;BME280;38719;51.418;7.286;2022-12-13T00:36:45;99384.31;;;-0.35;62.17
52855;BME280;38719;51.418;7.286;2022-12-13T00:39:13;99379.22;;;-0.47;62.56
52855;BME280;38719;51.418;7.286;2022-12-13T00:41:42;99377.47;;;-0.48;63.32
52855;BME280;38719;51.418;7.286;2022-12-13T00:44:12;99381.75;;;-0.42;62.70
52855;BME280;38719;51.418;7.286;2022-12-13T00:46:41;99383.59;;;-0.54;62.78
52855;BME280;38719;51.418;7.286;2022-12-13T00:49:09;99383.66;;;-0.57;62.46
52855;BME280;38719;51.418;7.286;2022-12-13T00:51:38;99366.22;;;-0.61;63.85
52855;BME280;38719;51.418;7.286;2022-12-13T00:54:06;99379.31;;;-0.59;62.82
52855;BME280;38719;51.418;7.286;2022-12-13T00:56:36;99372.34;;;-0.62;63.58
52855;BME280;38719;51.418;7.286;2022-12-13T00:59:04;99370.66;;;-0.68;63.29
52855;BME280;38719;51.418;7.286;2022-12-13T01:01:34;99378.47;;;-0.66;62.97
52855;BME280;38719;51.418;7.286;2022-12-13T01:04:04;99374.19;;;-0.75;63.12
52855;BME280;38719;51.418;7.286;2022-12-13T01:06:34;99375.03;;;-0.70;63.23
52855;BME280;38719;51.418;7.286;2022-12-13T01:09:04;99369.78;;;-0.70;62.97
52855;BME280;38719;51.418;7.286;2022-12-13T01:11:32;99373.28;;;-0.71;63.54
52855;BME280;38719;51.418;7.286;2022-12-13T01:14:00;99375.88;;;-0.68;63.56
52855;BME280;38719;51.418;7.286;2022-12-13T01:16:28;99370.63;;;-0.66;63.50
52855;BME280;38719;51.418;7.286;2022-12-13T01:18:58;99369.69;;;-0.57;63.05
52855;BME280;38719;51.418;7.286;2022-12-13T01:21:25;99372.31;;;-0.57;63.35
52855;BME280;38719;51.418;7.286;2022-12-13T01:23:59;99379.25;;;-0.52;63.33
52855;BME280;38719;51.418;7.286;2022-12-13T01:26:27;99367.06;;;-0.57;62.85
52855;BME280;38719;51.418;7.286;2022-12-13T01:28:55;99390.72;;;-0.67;63.48
52855;BME280;38719;51.418;7.286;2022-12-13T01:31:23;99392.44;;;-0.66;62.94
52855;BME280;38719;51.418;7.286;2022-12-13T01:33:51;99379.44;;;-0.75;62.38
52855;BME280;38719;51.418;7.286;2022-12-13T01:36:22;99390.75;;;-0.74;62.79
52855;BME280;38719;51.418;7.286;2022-12-13T01:38:53;99392.59;;;-0.84;63.13
52855;BME280;38719;51.418;7.286;2022-12-13T01:41:25;99402.19;;;-0.86;63.10
52855;BME280;38719;51.418;7.286;2022-12-13T01:43:55;99397.84;;;-0.89;63.25
52855;BME280;38719;51.418;7.286;2022-12-13T01:46:27;99389.97;;;-0.86;63.52
52855;BME280;38719;51.418;7.286;2022-12-13T01:49:00;99391.78;;;-0.95;64.49
52855;BME280;38719;51.418;7.286;2022-12-13T01:51:34;99396.06;;;-0.85;63.67
52855;BME280;38719;51.418;7.286;2022-12-13T01:54:05;99396.03;;;-0.82;63.52
52855;BME280;38719;51.418;7.286;2022-12-13T01:56:37;99392.56;;;-0.86;63.79
52855;BME280;38719;51.418;7.286;2022-12-13T01:59:10;99390.06;;;-0.96;63.58
52855;BME280;38719;51.418;7.286;2022-12-13T02:01:38;99388.28;;;-0.91;63.32
52855;BME280;38719;51.418;7.286;2022-12-13T02:04:07;99389.97;;;-0.87;62.94
52855;BME280;38719;51.418;7.286;2022-12-13T02:06:38;99388.25;;;-0.90;63.07
52855;BME280;38719;51.418;7.286;2022-12-13T02:09:07;99383.88;;;-0.89;63.61
52855;BME280;38719;51.418;7.286;2022-12-13T02:11:38;99390.03;;;-0.90;63.29
52855;BME280;38719;51.418;7.286;2022-12-13T02:14:07;99387.38;;;-0.89;63.54
52855;BME280;38719;51.418;7.286;2022-12-13T02:16:44;99384.84;;;-0.96;63.50
52855;BME280;38719;51.418;7.286;2022-12-13T02:19:52;99397.03;;;-0.99;63.40
52855;BME280;38719;51.418;7.286;2022-12-13T02:22:43;99392.72;;;-1.04;63.40
52855;BME280;38719;51.418;7.286;2022-12-13T02:25:32;99391.06;;;-1.16;63.56
52855;BME280;38719;51.418;7.286;2022-12-13T02:28:19;99385.75;;;-1.04;63.11
52855;BME280;38719;51.418;7.286;2022-12-13T02:31:02;99394.50;;;-1.09;63.58
52855;BME280;38719;51.418;7.286;2022-12-13T02:33:38;99388.44;;;-1.16;63.27
52855;BME280;38719;51.418;7.286;2022-12-13T02:36:15;99388.47;;;-1.19;63.96
52855;BME280;38719;51.418;7.286;2022-12-13T02:38:51;99380.63;;;-1.21;63.56
52855;BME280;38719;51.418;7.286;2022-12-13T02:41:24;99381.44;;;-1.14;63.08
52855;BME280;38719;51.418;7.286;2022-12-13T02:43:57;99390.16;;;-1.12;63.31
52855;BME280;38719;51.418;7.286;2022-12-13T02:46:32;99378.03;;;-1.22;63.46
52855;BME280;38719;51.418;7.286;2022-12-13T02:49:01;99390.22;;;-1.20;63.28
52855;BME280;38719;51.418;7.286;2022-12-13T02:51:30;99374.59;;;-1.27;62.96
52855;BME280;38719;51.418;7.286;2022-12-13T02:53:58;99387.66;;;-1.27;63.76
52855;BME280;38719;51.418;7.286;2022-12-13T02:56:26;99377.22;;;-1.34;63.25
52855;BME280;38719;51.418;7.286;2022-12-13T02:58:55;99381.56;;;-1.30;63.89
52855;BME280;38719;51.418;7.286;2022-12-13T03:01:36;99371.19;;;-1.42;63.22
52855;BME280;38719;51.418;7.286;2022-12-13T03:04:12;99377.22;;;-1.35;63.89
52855;BME280;38719;51.418;7.286;2022-12-13T03:06:45;99381.56;;;-1.30;63.26
52855;BME280;38719;51.418;7.286;2022-12-13T03:09:25;99374.66;;;-1.38;63.30
52855;BME280;38719;51.418;7.286;2022-12-13T03:12:09;99375.53;;;-1.44;63.66
52855;BME280;38719;51.418;7.286;2022-12-13T03:15:00;99374.66;;;-1.43;63.38
52855;BME280;38719;51.418;7.286;2022-12-13T03:17:40;99381.63;;;-1.42;63.58
52855;BME280;38719;51.418;7.286;2022-12-13T03:20:14;99362.53;;;-1.55;63.11
52855;BME280;38719;51.418;7.286;2022-12-13T03:22:48;99364.34;;;-1.68;63.68
52855;BME280;38719;51.418;7.286;2022-12-13T03:25:17;99363.47;;;-1.70;63.36
52855;BME280;38719;51.418;7.286;2022-12-13T03:27:58;99370.41;;;-1.63;63.26
52855;BME280;38719;51.418;7.286;2022-12-13T03:30:28;99360.06;;;-1.78;63.27
52855;BME280;38719;51.418;7.286;2022-12-13T03:32:57;99373.03;;;-1.66;63.52
52855;BME280;38719;51.418;7.286;2022-12-13T03:35:25;99359.16;;;-1.74;63.18
52855;BME280;38719;51.418;7.286;2022-12-13T03:38:12;99370.41;;;-1.67;64.11
52855;BME280;38719;51.418;7.286;2022-12-13T03:40:49;99370.38;;;-1.53;62.92
52855;BME280;38719;51.418;7.286;2022-12-13T03:43:18;99377.31;;;-1.52;62.95
52855;BME280;38719;51.418;7.286;2022-12-13T03:45:55;99359.19;;;-1.89;64.25
52855;BME280;38719;51.418;7.286;2022-12-13T03:48:24;99363.50;;;-1.73;63.73
52855;BME280;38719;51.418;7.286;2022-12-13T03:50:53;99366.94;;;-1.63;63.41
52855;BME280;38719;51.418;7.286;2022-12-13T03:53:21;99358.22;;;-1.64;62.70
52855;BME280;38719;51.418;7.286;2022-12-13T03:56:02;99352.16;;;-1.69;62.68
52855;BME280;38719;51.418;7.286;2022-12-13T03:58:33;99356.50;;;-1.68;63.88
52855;BME280;38719;51.418;7.286;2022-12-13T04:01:05;99348.72;;;-1.74;62.64
52855;BME280;38719;51.418;7.286;2022-12-13T04:03:35;99352.19;;;-1.75;63.29
52855;BME280;38719;51.418;7.286;2022-12-13T04:06:04;99336.56;;;-1.81;63.49
52855;BME280;38719;51.418;7.286;2022-12-13T04:08:32;99335.72;;;-1.89;63.83
52855;BME280;38719;51.418;7.286;2022-12-13T04:11:01;99343.50;;;-1.80;63.10
52855;BME280;38719;51.418;7.286;2022-12-13T04:13:51;99353.94;;;-1.75;63.77
52855;BME280;38719;51.418;7.286;2022-12-13T04:16:18;99353.97;;;-1.80;63.53
52855;BME280;38719;51.418;7.286;2022-12-13T04:18:48;99337.38;;;-1.71;63.37
52855;BME280;38719;51.418;7.286;2022-12-13T04:21:16;99345.22;;;-1.73;63.24
52855;BME280;38719;51.418;7.286;2022-12-13T04:23:45;99368.66;;;-1.59;63.21
52855;BME280;38719;51.418;7.286;2022-12-13T04:26:14;99350.41;;;-1.67;62.67
52855;BME280;38719;51.418;7.286;2022-12-13T04:28:42;99357.38;;;-1.66;63.07
52855;BME280;38719;51.418;7.286;2022-12-13T04:31:17;99354.69;;;-1.55;62.66
52855;BME280;38719;51.418;7.286;2022-12-13T04:33:45;99345.13;;;-1.57;62.86
52855;BME280;38719;51.418;7.286;2022-12-13T04:36:15;99353.88;;;-1.65;62.33
52855;BME280;38719;51.418;7.286;2022-12-13T04:38:58;99365.22;;;-1.69;61.85
52855;BME280;38719;51.418;7.286;2022-12-13T04:41:26;99353.88;;;-1.65;62.44
52855;BME280;38719;51.418;7.286;2022-12-13T04:44:00;99348.66;;;-1.66;62.99
52855;BME280;38719;51.418;7.286;2022-12-13T04:46:28;99350.34;;;-1.57;62.34
52855;BME280;38719;51.418;7.286;2022-12-13T04:48:56;99349.44;;;-1.47;62.65
52855;BME280;38719;51.418;7.286;2022-12-13T04:51:26;99332.97;;;-1.62;61.78
52855;BME280;38719;51.418;7.286;2022-12-13T04:53:54;99330.34;;;-1.60;62.65
52855;BME280;38719;51.418;7.286;2022-12-13T04:56:42;99326.88;;;-1.59;62.56
52855;BME280;38719;51.418;7.286;2022-12-13T04:59:10;99325.97;;;-1.52;61.76
52855;BME280;38719;51.418;7.286;2022-12-13T05:01:38;99329.44;;;-1.51;61.34
52855;BME280;38719;51.418;7.286;2022-12-13T05:04:06;99316.47;;;-1.65;61.76
52855;BME280;38719;51.418;7.286;2022-12-13T05:06:35;99329.47;;;-1.59;61.91
52855;BME280;38719;51.418;7.286;2022-12-13T05:09:03;99318.19;;;-1.67;60.97
52855;BME280;38719;51.418;7.286;2022-12-13T05:11:36;99317.34;;;-1.71;61.86
52855;BME280;38719;51.418;7.286;2022-12-13T05:14:11;99315.59;;;-1.69;61.33
52855;BME280;38719;51.418;7.286;2022-12-13T05:16:48;99294.72;;;-1.69;62.09
52855;BME280;38719;51.418;7.286;2022-12-13T05:19:16;99310.34;;;-1.58;61.70
52855;BME280;38719;51.418;7.286;2022-12-13T05:21:45;99299.81;;;-1.50;61.15
52855;BME280;38719;51.418;7.286;2022-12-13T05:24:14;99307.56;;;-1.33;61.13
52855;BME280;38719;51.418;7.286;2022-12-13T05:26:42;99302.19;;;-1.15;60.79
52855;BME280;38719;51.418;7.286;2022-12-13T05:29:10;99303.97;;;-1.18;60.10
52855;BME280;38719;51.418;7.286;2022-12-13T05:31:38;99304.00;;;-1.24;60.29
52855;BME280;38719;51.418;7.286;2022-12-13T05:34:07;99303.22;;;-1.36;59.94
52855;BME280;38719;51.418;7.286;2022-12-13T05:36:36;99311.09;;;-1.40;61.33
52855;BME280;38719;51.418;7.286;2022-12-13T05:39:06;99308.44;;;-1.31;60.56
52855;BME280;38719;51.418;7.286;2022-12-13T05:41:55;99297.13;;;-1.36;59.97
52855;BME280;38719;51.418;7.286;2022-12-13T05:44:27;99306.78;;;-1.49;60.79
52855;BME280;38719;51.418;7.286;2022-12-13T05:46:55;99306.75;;;-1.46;60.44
52855;BME280;38719;51.418;7.286;2022-12-13T05:49:28;99312.84;;;-1.44;61.15
52855;BME280;38719;51.418;7.286;2022-12-13T05:51:56;99312.88;;;-1.50;60.80
52855;BME280;38719;51.418;7.286;2022-12-13T05:54:26;99302.50;;;-1.61;61.37
52855;BME280;38719;51.418;7.286;2022-12-13T05:56:54;99316.47;;;-1.62;60.68
52855;BME280;38719;51.418;7.286;2022-12-13T05:59:21;99299.78;;;-1.41;60.90
52855;BME280;38719;51.418;7.286;2022-12-13T06:01:52;99304.09;;;-1.40;60.57
52855;BME280;38719;51.418;7.286;2022-12-13T06:04:20;99307.56;;;-1.35;60.40
52855;BME280;38719;51.418;7.286;2022-12-13T06:06:49;99311.91;;;-1.34;60.77
52855;BME280;38719;51.418;7.286;2022-12-13T06:09:18;99317.13;;;-1.31;60.04
52855;BME280;38719;51.418;7.286;2022-12-13T06:11:48;99301.50;;;-1.37;59.95
52855;BME280;38719;51.418;7.286;2022-12-13T06:14:16;99306.66;;;-1.29;60.44
52855;BME280;38719;51.418;7.286;2022-12-13T06:16:49;99304.91;;;-1.30;60.09
52855;BME280;38719;51.418;7.286;2022-12-13T06:19:17;99298.88;;;-1.37;60.40
52855;BME280;38719;51.418;7.286;2022-12-13T06:21:45;99311.88;;;-1.31;60.85
52855;BME280;38719;51.418;7.286;2022-12-13T06:24:13;99309.28;;;-1.27;60.39
52855;BME280;38719;51.418;7.286;2022-12-13T06:26:41;99319.66;;;-1.18;60.69
52855;BME280;38719;51.418;7.286;2022-12-13T06:29:13;99319.72;;;-1.31;59.37
52855;BME280;38719;51.418;7.286;2022-12-13T06:31:52;99314.56;;;-1.37;59.52
52855;BME280;38719;51.418;7.286;2022-12-13T06:34:28;99319.84;;;-1.44;59.67
52855;BME280;38719;51.418;7.286;2022-12-13T06:36:56;99318.16;;;-1.56;60.59
52855;BME280;38719;51.418;7.286;2022-12-13T06:39:26;99301.56;;;-1.48;60.01
52855;BME280;38719;51.418;7.286;2022-12-13T06:41:58;99308.50;;;-1.43;59.76
52855;BME280;38719;51.418;7.286;2022-12-13T06:44:28;99310.31;;;-1.53;59.87
52855;BME280;38719;51.418;7.286;2022-12-13T06:46:58;99319.88;;;-1.51;60.07
52855;BME280;38719;51.418;7.286;2022-12-13T06:49:37;99313.81;;;-1.59;60.31
52855;BME280;38719;51.418;7.286;2022-12-13T06:52:07;99310.22;;;-1.42;60.66
52855;BME280;38719;51.418;7.286;2022-12-13T06:54:37;99307.53;;;-1.30;59.82
52855;BME280;38719;51.418;7.286;2022-12-13T06:57:05;99309.25;;;-1.26;59.19
52855;BME280;38719;51.418;7.286;2022-12-13T06:59:35;99308.38;;;-1.23;59.91
52855;BME280;38719;51.418;7.286;2022-12-13T07:02:03;99304.06;;;-1.34;58.97
52855;BME280;38719;51.418;7.286;2022-12-13T07:04:40;99317.16;;;-1.37;59.58
52855;BME280;38719;51.418;7.286;2022-12-13T07:07:08;99318.00;;;-1.36;58.88
52855;BME280;38719;51.418;7.286;2022-12-13T07:09:36;99324.22;;;-1.53;59.98
52855;BME280;38719;51.418;7.286;2022-12-13T07:12:05;99319.03;;;-1.57;59.01
52855;BME280;38719;51.418;7.286;2022-12-13T07:14:32;99317.25;;;-1.49;60.34
52855;BME280;38719;51.418;7.286;2022-12-13T07:17:08;99310.31;;;-1.53;59.28
52855;BME280;38719;51.418;7.286;2022-12-13T07:19:36;99319.06;;;-1.60;59.48
52855;BME280;38719;51.418;7.286;2022-12-13T07:22:03;99315.59;;;-1.66;59.87
52855;BME280;38719;51.418;7.286;2022-12-13T07:24:33;99322.56;;;-1.63;60.69
52855;BME280;38719;51.418;7.286;2022-12-13T07:27:00;99320.78;;;-1.59;59.75
52855;BME280;38719;51.418;7.286;2022-12-13T07:29:28;99320.81;;;-1.66;60.27
52855;BME280;38719;51.418;7.286;2022-12-13T07:31:56;99315.59;;;-1.69;59.64
52855;BME280;38719;51.418;7.286;2022-12-13T07:34:28;99320.84;;;-1.73;60.83
52855;BME280;38719;51.418;7.286;2022-12-13T07:36:57;99316.50;;;-1.71;59.89
52855;BME280;38719;51.418;7.286;2022-12-13T07:39:25;99325.19;;;-1.69;60.26
52855;BME280;38719;51.418;7.286;2022-12-13T07:41:53;99324.38;;;-1.79;60.40
52855;BME280;38719;51.418;7.286;2022-12-13T07:44:22;99325.22;;;-1.75;60.52
52855;BME280;38719;51.418;7.286;2022-12-13T07:46:50;99308.72;;;-1.79;60.35
52855;BME280;38719;51.418;7.286;2022-12-13T07:49:18;99328.69;;;-1.70;60.56
52855;BME280;38719;51.418;7.286;2022-12-13T07:51:47;99306.94;;;-1.79;60.55
52855;BME280;38719;51.418;7.286;2022-12-13T07:54:15;99313.88;;;-1.67;60.11
52855;BME280;38719;51.418;7.286;2022-12-13T07:56:43;99312.03;;;-1.54;60.24
52855;BME280;38719;51.418;7.286;2022-12-13T07:59:11;99309.44;;;-1.54;60.33
52855;BME280;38719;51.418;7.286;2022-12-13T08:01:39;99324.16;;;-1.45;59.44
52855;BME280;38719;51.418;7.286;2022-12-13T08:04:07;99325.88;;;-1.39;60.03
52855;BME280;38719;51.418;7.286;2022-12-13T08:06:36;99337.16;;;-1.33;59.14
52855;BME280;38719;51.418;7.286;2022-12-13T08:09:05;99335.41;;;-1.34;60.06
52855;BME280;38719;51.418;7.286;2022-12-13T08:11:33;99327.59;;;-1.40;59.79
52855;BME280;38719;51.418;7.286;2022-12-13T08:14:01;99340.66;;;-1.37;59.55
52855;BME280;38719;51.418;7.286;2022-12-13T08:16:29;99348.50;;;-1.37;59.89
52855;BME280;38719;51.418;7.286;2022-12-13T08:18:58;99339.00;;;-1.47;60.60
52855;BME280;38719;51.418;7.286;2022-12-13T08:21:32;99342.44;;;-1.37;60.35
52855;BME280;38719;51.418;7.286;2022-12-13T08:24:22;99337.16;;;-1.33;61.57
52855;BME280;38719;51.418;7.286;2022-12-13T08:26:50;99338.03;;;-1.34;61.03
52855;BME280;38719;51.418;7.286;2022-12-13T08:29:17;99338.03;;;-1.34;60.40
52855;BME280;38719;51.418;7.286;2022-12-13T08:31:58;99333.75;;;-1.41;60.51
52855;BME280;38719;51.418;7.286;2022-12-13T08:34:26;99338.88;;;-1.30;61.26
52855;BME280;38719;51.418;7.286;2022-12-13T08:36:54;99343.16;;;-1.18;60.75
52855;BME280;38719;51.418;7.286;2022-12-13T08:39:31;99350.13;;;-1.17;61.50
52855;BME280;38719;51.418;7.286;2022-12-13T08:42:02;99340.53;;;-1.17;61.42
52855;BME280;38719;51.418;7.286;2022-12-13T08:44:44;99345.78;;;-1.20;61.26
52855;BME280;38719;51.418;7.286;2022-12-13T08:47:12;99335.31;;;-1.17;62.07
52855;BME280;38719;51.418;7.286;2022-12-13T08:49:53;99349.19;;;-1.11;60.96
52855;BME280;38719;51.418;7.286;2022-12-13T08:52:29;99336.31;;;-1.35;62.10
52855;BME280;38719;51.418;7.286;2022-12-13T08:54:59;99355.44;;;-1.30;62.44
52855;BME280;38719;51.418;7.286;2022-12-13T08:57:27;99338.81;;;-1.21;62.20
52855;BME280;38719;51.418;7.286;2022-12-13T08:59:54;99342.22;;;-1.09;61.36
52855;BME280;38719;51.418;7.286;2022-12-13T09:02:22;99344.81;;;-1.05;61.00
52855;BME280;38719;51.418;7.286;2022-12-13T09:04:50;99331.75;;;-1.06;61.35
52855;BME280;38719;51.418;7.286;2022-12-13T09:07:19;99347.25;;;-0.85;60.92
52855;BME280;38719;51.418;7.286;2022-12-13T09:09:47;99339.47;;;-0.88;61.60
52855;BME280;38719;51.418;7.286;2022-12-13T09:12:21;99343.72;;;-0.77;60.36
52855;BME280;38719;51.418;7.286;2022-12-13T09:14:56;99347.94;;;-0.59;60.10
52855;BME280;38719;51.418;7.286;2022-12-13T09:17:28;99337.41;;;-0.55;60.67
52855;BME280;38719;51.418;7.286;2022-12-13T09:20:04;99353.91;;;-0.50;60.82
52855;BME280;38719;51.418;7.286;2022-12-13T09:22:54;99353.06;;;-0.50;59.89
52855;BME280;38719;51.418;7.286;2022-12-13T09:25:28;99345.13;;;-0.39;60.21
52855;BME280;38719;51.418;7.286;2022-12-13T09:28:05;99347.66;;;-0.33;59.79
52855;BME280;38719;51.418;7.286;2022-12-13T09:30:35;99351.97;;;-0.26;59.13
52855;BME280;38719;51.418;7.286;2022-12-13T09:33:04;99335.38;;;-0.26;58.59
52855;BME280;38719;51.418;7.286;2022-12-13T09:35:52;99351.88;;;-0.21;59.52
52855;BME280;38719;51.418;7.286;2022-12-13T09:38:20;99350.09;;;-0.18;59.24
52855;BME280;38719;51.418;7.286;2022-12-13T09:40:49;99351.78;;;-0.10;58.18
52855;BME280;38719;51.418;7.286;2022-12-13T09:43:28;99349.13;;;-0.07;58.35
52855;BME280;38719;51.418;7.286;2022-12-13T09:46:01;99358.66;;;-0.02;58.65
52855;BME280;38719;51.418;7.286;2022-12-13T09:48:51;99352.53;;;0.03;58.35
52855;BME280;38719;51.418;7.286;2022-12-13T09:51:28;99349.88;;;0.04;58.92
52855;BME280;38719;51.418;7.286;2022-12-13T09:54:16;99356.78;;;0.10;58.99
52855;BME280;38719;51.418;7.286;2022-12-13T09:56:44;99353.22;;;0.15;59.23
52855;BME280;38719;51.418;7.286;2022-12-13T09:59:20;99338.38;;;0.16;58.12
52855;BME280;38719;51.418;7.286;2022-12-13T10:01:49;99339.94;;;0.29;58.38
52855;BME280;38719;51.418;7.286;2022-12-13T10:04:17;99338.09;;;0.38;58.29
52855;BME280;38719;51.418;7.286;2022-12-13T10:06:45;99327.59;;;0.39;57.40
52855;BME280;38719;51.418;7.286;2022-12-13T10:09:13;99327.56;;;0.42;57.13
52855;BME280;38719;51.418;7.286;2022-12-13T10:11:47;99329.34;;;0.40;56.71
52855;BME280;38719;51.418;7.286;2022-12-13T10:14:18;99321.28;;;0.56;56.26
52855;BME280;38719;51.418;7.286;2022-12-13T10:16:51;99315.25;;;0.49;56.23
52855;BME280;38719;51.418;7.286;2022-12-13T10:19:28;99325.53;;;0.61;55.88
52855;BME280;38719;51.418;7.286;2022-12-13T10:22:02;99326.38;;;0.65;55.73
52855;BME280;38719;51.418;7.286;2022-12-13T10:24:48;99328.94;;;0.70;56.20
52855;BME280;38719;51.418;7.286;2022-12-13T10:27:17;99318.28;;;0.79;55.95
52855;BME280;38719;51.418;7.286;2022-12-13T10:30:05;99318.25;;;0.82;55.81
52855;BME280;38719;51.418;7.286;2022-12-13T10:32:41;99317.28;;;0.89;55.94
52855;BME280;38719;51.418;7.286;2022-12-13T10:35:15;99316.69;;;0.70;55.77
52855;BME280;38719;51.418;7.286;2022-12-13T10:37:47;99311.13;;;0.90;56.58
52855;BME280;38719;51.418;7.286;2022-12-13T10:40:31;99298.84;;;0.95;57.16
52855;BME280;38719;51.418;7.286;2022-12-13T10:43:13;99300.44;;;1.04;57.24
52855;BME280;38719;51.418;7.286;2022-12-13T10:45:43;99309.03;;;1.14;57.54
52855;BME280;38719;51.418;7.286;2022-12-13T10:48:24;99295.09;;;1.10;57.03
52855;BME280;38719;51.418;7.286;2022-12-13T10:50:58;99284.59;;;1.09;56.89
52855;BME280;38719;51.418;7.286;2022-12-13T10:53:29;99289.03;;;1.07;56.56
52855;BME280;38719;51.418;7.286;2022-12-13T10:55:58;99288.84;;;1.16;56.51
52855;BME280;38719;51.418;7.286;2022-12-13T10:58:37;99286.31;;;1.13;56.47
52855;BME280;38719;51.418;7.286;2022-12-13T11:01:19;99289.75;;;1.15;57.47
52855;BME280;38719;51.418;7.286;2022-12-13T11:03:58;99287.94;;;1.20;57.02
52855;BME280;38719;51.418;7.286;2022-12-13T11:06:39;99288.84;;;1.18;56.92
52855;BME280;38719;51.418;7.286;2022-12-13T11:09:13;99271.41;;;1.13;57.43
52855;BME280;38719;51.418;7.286;2022-12-13T11:11:49;99275.63;;;1.24;57.47
52855;BME280;38719;51.418;7.286;2022-12-13T11:14:24;99271.97;;;1.33;57.98
52855;BME280;38719;51.418;7.286;2022-12-13T11:17:05;99274.56;;;1.34;57.17
52855;BME280;38719;51.418;7.286;2022-12-13T11:19:37;99266.84;;;1.25;57.03
52855;BME280;38719;51.418;7.286;2022-12-13T11:22:07;99256.34;;;1.25;57.46
52855;BME280;38719;51.418;7.286;2022-12-13T11:24:36;99253.63;;;1.31;57.03
52855;BME280;38719;51.418;7.286;2022-12-13T11:27:26;99257.16;;;1.30;57.45
52855;BME280;38719;51.418;7.286;2022-12-13T11:30:07;99238.75;;;1.32;57.21
52855;BME280;38719;51.418;7.286;2022-12-13T11:32:50;99242.16;;;1.37;57.33
52855;BME280;38719;51.418;7.286;2022-12-13T11:35:28;99243.53;;;1.56;55.86
52855;BME280;38719;51.418;7.286;2022-12-13T11:38:03;99238.06;;;1.67;54.62
52855;BME280;38719;51.418;7.286;2022-12-13T11:40:37;99231.78;;;1.76;53.64
52855;BME280;38719;51.418;7.286;2022-12-13T11:43:11;99217.03;;;1.69;52.67
52855;BME280;38719;51.418;7.286;2022-12-13T11:45:46;99227.47;;;1.72;53.77
52855;BME280;38719;51.418;7.286;2022-12-13T11:48:22;99236.25;;;1.69;55.05
52855;BME280;38719;51.418;7.286;2022-12-13T11:50:54;99229.19;;;1.73;52.72
52855;BME280;38719;51.418;7.286;2022-12-13T11:53:27;99228.50;;;1.65;54.27
52855;BME280;38719;51.418;7.286;2022-12-13T11:56:02;99231.78;;;1.74;54.06
52855;BME280;38719;51.418;7.286;2022-12-13T11:58:36;99233.38;;;1.82;54.31
52855;BME280;38719;51.418;7.286;2022-12-13T12:01:31;99229.75;;;1.89;53.80
52855;BME280;38719;51.418;7.286;2022-12-13T12:04:13;99230.44;;;1.97;54.32
52855;BME280;38719;51.418;7.286;2022-12-13T12:06:48;99225.81;;;2.08;53.87
52855;BME280;38719;51.418;7.286;2022-12-13T12:09:19;99225.88;;;2.07;54.94
52855;BME280;38719;51.418;7.286;2022-12-13T12:11:53;99217.84;;;2.13;54.13
52855;BME280;38719;51.418;7.286;2022-12-13T12:14:34;99211.72;;;2.14;54.27
52855;BME280;38719;51.418;7.286;2022-12-13T12:17:04;99220.47;;;2.13;54.70
52855;BME280;38719;51.418;7.286;2022-12-13T12:19:36;99224.69;;;2.20;54.33
52855;BME280;38719;51.418;7.286;2022-12-13T12:22:17;99218.75;;;2.12;53.95
52855;BME280;38719;51.418;7.286;2022-12-13T12:24:59;99221.19;;;2.20;53.01
52855;BME280;38719;51.418;7.286;2022-12-13T12:27:36;99217.66;;;2.21;53.27
52855;BME280;38719;51.418;7.286;2022-12-13T12:30:12;99199.34;;;2.18;53.38
52855;BME280;38719;51.418;7.286;2022-12-13T12:32:52;99208.81;;;2.27;53.58
52855;BME280;38719;51.418;7.286;2022-12-13T12:35:41;99212.03;;;2.38;53.63
52855;BME280;38719;51.418;7.286;2022-12-13T12:38:25;99199.97;;;2.29;53.17
52855;BME280;38719;51.418;7.286;2022-12-13T12:41:14;99205.88;;;2.39;52.54
52855;BME280;38719;51.418;7.286;2022-12-13T12:43:53;99205.38;;;2.21;52.40
52855;BME280;38719;51.418;7.286;2022-12-13T12:46:38;99201.88;;;2.22;53.34
52855;BME280;38719;51.418;7.286;2022-12-13T12:49:54;99211.16;;;2.37;53.36
52855;BME280;38719;51.418;7.286;2022-12-13T12:52:35;99205.03;;;2.37;52.07
52855;BME280;38719;51.418;7.286;2022-12-13T12:55:13;99204.44;;;2.25;53.29
52855;BME280;38719;51.418;7.286;2022-12-13T12:57:51;99200.22;;;2.18;53.63
52855;BME280;38719;51.418;7.286;2022-12-13T13:00:22;99205.38;;;2.23;53.35
52855;BME280;38719;51.418;7.286;2022-12-13T13:02:56;99190.47;;;2.23;53.45
52855;BME280;38719;51.418;7.286;2022-12-13T13:05:31;99196.75;;;2.16;54.24
52855;BME280;38719;51.418;7.286;2022-12-13T13:08:09;99190.03;;;2.03;54.95
52855;BME280;38719;51.418;7.286;2022-12-13T13:10:39;99198.56;;;2.14;53.71
52855;BME280;38719;51.418;7.286;2022-12-13T13:13:42;99201.94;;;2.19;54.03
52855;BME280;38719;51.418;7.286;2022-12-13T13:16:29;99196.69;;;2.19;54.00
52855;BME280;38719;51.418;7.286;2022-12-13T13:18:58;99186.16;;;2.21;53.85
52855;BME280;38719;51.418;7.286;2022-12-13T13:21:31;99189.56;;;2.24;54.43
52855;BME280;38719;51.418;7.286;2022-12-13T13:24:14;99185.91;;;2.32;53.71
52855;BME280;38719;51.418;7.286;2022-12-13T13:26:44;99194.38;;;2.43;53.07
52855;BME280;38719;51.418;7.286;2022-12-13T13:29:39;99190.13;;;2.39;53.08
52855;BME280;38719;51.418;7.286;2022-12-13T13:32:33;99189.28;;;2.37;53.79
52855;BME280;38719;51.418;7.286;2022-12-13T13:44:54;99190.59;;;2.55;53.76